sensor_id;sensor_type;location;lat;lon;timestamp;P1;durP1;ratioP1;P2;durP2;ratioP2
72584;SDS011;60618;40.084;32.908;2022-10-15T00:00:50;10.67;;;5.63;;
72584;SDS011;60618;40.084;32.908;2022-10-15T00:03:17;9.88;;;5.20;;
72584;SDS011;60618;40.084;32.908;2022-10-15T00:05:44;9.30;;;5.20;;
72584;SDS011;60618;40.084;32.908;2022-10-15T00:08:11;9.82;;;5.30;;
72584;SDS011;60618;40.084;32.908;2022-10-15T00:10:38;10.75;;;5.50;;
72584;SDS011;60618;40.084;32.908;2022-10-15T00:13:05;9.80;;;5.53;;
72584;SDS011;60618;40.084;32.908;2022-10-15T00:15:34;10.13;;;5.60;;
72584;SDS011;60618;40.084;32.908;2022-10-15T00:18:02;9.07;;;5.43;;
72584;SDS011;60618;40.084;32.908;2022-10-15T00:20:29;13.27;;;5.53;;
72584;SDS011;60618;40.084;32.908;2022-10-15T00:22:56;9.50;;;5.57;;
72584;SDS011;60618;40.084;32.908;2022-10-15T00:25:23;11.00;;;5.80;;
72584;SDS011;60618;40.084;32.908;2022-10-15T00:27:49;10.73;;;5.40;;
72584;SDS011;60618;40.084;32.908;2022-10-15T00:30:16;9.88;;;5.75;;
72584;SDS011;60618;40.084;32.908;2022-10-15T00:32:43;9.57;;;5.15;;
72584;SDS011;60618;40.084;32.908;2022-10-15T00:35:10;10.75;;;5.57;;
72584;SDS011;60618;40.084;32.908;2022-10-15T00:37:37;11.37;;;5.93;;
72584;SDS011;60618;40.084;32.908;2022-10-15T00:40:04;12.80;;;5.55;;
72584;SDS011;60618;40.084;32.908;2022-10-15T00:42:31;10.35;;;5.43;;
72584;SDS011;60618;40.084;32.908;2022-10-15T00:44:58;10.02;;;5.18;;
72584;SDS011;60618;40.084;32.908;2022-10-15T00:47:27;10.00;;;5.38;;
72584;SDS011;60618;40.084;32.908;2022-10-15T00:50:06;11.53;;;5.67;;
72584;SDS011;60618;40.084;32.908;2022-10-15T00:55:14;10.30;;;5.20;;
72584;SDS011;60618;40.084;32.908;2022-10-15T00:57:45;9.50;;;5.35;;
72584;SDS011;60618;40.084;32.908;2022-10-15T01:00:15;8.77;;;5.10;;
72584;SDS011;60618;40.084;32.908;2022-10-15T01:02:43;9.17;;;5.30;;
72584;SDS011;60618;40.084;32.908;2022-10-15T01:05:11;10.65;;;5.38;;
72584;SDS011;60618;40.084;32.908;2022-10-15T01:07:40;9.27;;;5.15;;
72584;SDS011;60618;40.084;32.908;2022-10-15T01:10:07;9.30;;;4.93;;
72584;SDS011;60618;40.084;32.908;2022-10-15T01:15:31;9.60;;;5.30;;
72584;SDS011;60618;40.084;32.908;2022-10-15T01:18:11;9.43;;;5.22;;
72584;SDS011;60618;40.084;32.908;2022-10-15T01:20:47;10.10;;;5.25;;
72584;SDS011;60618;40.084;32.908;2022-10-15T01:29:32;10.53;;;5.57;;
72584;SDS011;60618;40.084;32.908;2022-10-15T01:32:03;10.02;;;5.30;;
72584;SDS011;60618;40.084;32.908;2022-10-15T01:43:06;10.00;;;5.40;;
72584;SDS011;60618;40.084;32.908;2022-10-15T01:45:39;10.88;;;5.20;;
72584;SDS011;60618;40.084;32.908;2022-10-15T01:48:17;8.93;;;5.18;;
72584;SDS011;60618;40.084;32.908;2022-10-15T01:50:46;9.18;;;5.13;;
72584;SDS011;60618;40.084;32.908;2022-10-15T01:53:17;9.95;;;5.60;;
72584;SDS011;60618;40.084;32.908;2022-10-15T01:55:47;9.67;;;5.23;;
72584;SDS011;60618;40.084;32.908;2022-10-15T01:58:14;10.52;;;5.18;;
72584;SDS011;60618;40.084;32.908;2022-10-15T02:00:43;10.45;;;5.45;;
72584;SDS011;60618;40.084;32.908;2022-10-15T02:03:12;14.20;;;5.55;;
72584;SDS011;60618;40.084;32.908;2022-10-15T02:05:41;9.90;;;5.30;;
72584;SDS011;60618;40.084;32.908;2022-10-15T02:11:10;9.63;;;5.20;;
72584;SDS011;60618;40.084;32.908;2022-10-15T02:13:57;9.63;;;5.22;;
72584;SDS011;60618;40.084;32.908;2022-10-15T02:16:43;11.05;;;5.40;;
72584;SDS011;60618;40.084;32.908;2022-10-15T02:22:19;10.13;;;4.93;;
72584;SDS011;60618;40.084;32.908;2022-10-15T02:25:07;9.93;;;5.18;;
72584;SDS011;60618;40.084;32.908;2022-10-15T02:27:38;9.15;;;4.70;;
72584;SDS011;60618;40.084;32.908;2022-10-15T02:30:07;9.32;;;5.13;;
72584;SDS011;60618;40.084;32.908;2022-10-15T02:32:36;9.68;;;4.95;;
72584;SDS011;60618;40.084;32.908;2022-10-15T02:35:06;9.13;;;4.83;;
72584;SDS011;60618;40.084;32.908;2022-10-15T02:37:35;9.65;;;4.68;;
72584;SDS011;60618;40.084;32.908;2022-10-15T02:40:05;9.30;;;5.05;;
72584;SDS011;60618;40.084;32.908;2022-10-15T02:42:32;9.15;;;4.68;;
72584;SDS011;60618;40.084;32.908;2022-10-15T02:44:59;8.65;;;4.97;;
72584;SDS011;60618;40.084;32.908;2022-10-15T02:47:26;9.10;;;5.00;;
72584;SDS011;60618;40.084;32.908;2022-10-15T02:49:53;8.98;;;4.70;;
72584;SDS011;60618;40.084;32.908;2022-10-15T02:52:20;9.02;;;5.00;;
72584;SDS011;60618;40.084;32.908;2022-10-15T02:54:47;9.40;;;4.80;;
72584;SDS011;60618;40.084;32.908;2022-10-15T02:57:14;9.18;;;4.70;;
72584;SDS011;60618;40.084;32.908;2022-10-15T02:59:41;9.43;;;5.00;;
72584;SDS011;60618;40.084;32.908;2022-10-15T03:02:08;9.43;;;4.90;;
72584;SDS011;60618;40.084;32.908;2022-10-15T03:04:42;9.23;;;4.80;;
72584;SDS011;60618;40.084;32.908;2022-10-15T03:07:09;10.77;;;5.30;;
72584;SDS011;60618;40.084;32.908;2022-10-15T03:09:35;9.20;;;4.65;;
72584;SDS011;60618;40.084;32.908;2022-10-15T03:12:02;9.13;;;4.97;;
72584;SDS011;60618;40.084;32.908;2022-10-15T03:14:29;8.23;;;4.50;;
72584;SDS011;60618;40.084;32.908;2022-10-15T03:16:56;8.77;;;4.68;;
72584;SDS011;60618;40.084;32.908;2022-10-15T03:19:23;9.00;;;4.63;;
72584;SDS011;60618;40.084;32.908;2022-10-15T03:21:50;8.93;;;4.38;;
72584;SDS011;60618;40.084;32.908;2022-10-15T03:24:17;9.00;;;4.90;;
72584;SDS011;60618;40.084;32.908;2022-10-15T03:26:44;10.52;;;4.75;;
72584;SDS011;60618;40.084;32.908;2022-10-15T03:29:11;9.38;;;4.95;;
72584;SDS011;60618;40.084;32.908;2022-10-15T03:31:37;8.65;;;5.20;;
72584;SDS011;60618;40.084;32.908;2022-10-15T03:34:04;8.95;;;4.70;;
72584;SDS011;60618;40.084;32.908;2022-10-15T03:36:31;9.07;;;4.83;;
72584;SDS011;60618;40.084;32.908;2022-10-15T03:38:58;8.65;;;4.70;;
72584;SDS011;60618;40.084;32.908;2022-10-15T03:41:25;8.90;;;4.90;;
72584;SDS011;60618;40.084;32.908;2022-10-15T03:43:52;9.35;;;4.93;;
72584;SDS011;60618;40.084;32.908;2022-10-15T03:46:19;9.55;;;4.72;;
72584;SDS011;60618;40.084;32.908;2022-10-15T03:48:49;7.70;;;4.40;;
72584;SDS011;60618;40.084;32.908;2022-10-15T03:51:16;8.73;;;4.82;;
72584;SDS011;60618;40.084;32.908;2022-10-15T03:53:49;8.95;;;4.88;;
72584;SDS011;60618;40.084;32.908;2022-10-15T03:56:16;9.00;;;4.65;;
72584;SDS011;60618;40.084;32.908;2022-10-15T03:58:43;8.50;;;4.60;;
72584;SDS011;60618;40.084;32.908;2022-10-15T04:01:11;9.87;;;4.67;;
72584;SDS011;60618;40.084;32.908;2022-10-15T04:03:41;8.98;;;4.95;;
72584;SDS011;60618;40.084;32.908;2022-10-15T04:06:08;8.85;;;4.45;;
72584;SDS011;60618;40.084;32.908;2022-10-15T04:08:35;9.05;;;4.30;;
72584;SDS011;60618;40.084;32.908;2022-10-15T04:11:02;9.93;;;4.80;;
72584;SDS011;60618;40.084;32.908;2022-10-15T04:13:29;9.47;;;4.70;;
72584;SDS011;60618;40.084;32.908;2022-10-15T04:15:56;11.93;;;5.05;;
72584;SDS011;60618;40.084;32.908;2022-10-15T04:18:23;9.18;;;4.82;;
72584;SDS011;60618;40.084;32.908;2022-10-15T04:20:50;8.93;;;4.60;;
72584;SDS011;60618;40.084;32.908;2022-10-15T04:23:17;9.63;;;5.30;;
72584;SDS011;60618;40.084;32.908;2022-10-15T04:25:44;9.87;;;4.80;;
72584;SDS011;60618;40.084;32.908;2022-10-15T04:28:11;8.32;;;4.93;;
72584;SDS011;60618;40.084;32.908;2022-10-15T04:30:37;8.50;;;4.65;;
72584;SDS011;60618;40.084;32.908;2022-10-15T04:33:04;10.60;;;4.82;;
72584;SDS011;60618;40.084;32.908;2022-10-15T04:35:31;8.18;;;4.65;;
72584;SDS011;60618;40.084;32.908;2022-10-15T04:37:58;9.03;;;4.53;;
72584;SDS011;60618;40.084;32.908;2022-10-15T04:40:25;11.07;;;4.82;;
72584;SDS011;60618;40.084;32.908;2022-10-15T04:42:52;8.32;;;4.40;;
72584;SDS011;60618;40.084;32.908;2022-10-15T04:45:19;8.32;;;4.47;;
72584;SDS011;60618;40.084;32.908;2022-10-15T04:47:46;8.90;;;4.78;;
72584;SDS011;60618;40.084;32.908;2022-10-15T04:50:13;9.20;;;4.70;;
72584;SDS011;60618;40.084;32.908;2022-10-15T04:52:40;9.27;;;4.40;;
72584;SDS011;60618;40.084;32.908;2022-10-15T04:55:07;8.75;;;4.80;;
72584;SDS011;60618;40.084;32.908;2022-10-15T04:57:34;10.10;;;4.60;;
72584;SDS011;60618;40.084;32.908;2022-10-15T05:00:02;9.20;;;4.63;;
72584;SDS011;60618;40.084;32.908;2022-10-15T05:02:29;9.10;;;4.80;;
72584;SDS011;60618;40.084;32.908;2022-10-15T05:04:56;9.52;;;4.85;;
72584;SDS011;60618;40.084;32.908;2022-10-15T05:07:23;9.85;;;5.20;;
72584;SDS011;60618;40.084;32.908;2022-10-15T05:09:51;9.40;;;4.93;;
72584;SDS011;60618;40.084;32.908;2022-10-15T05:12:20;9.20;;;5.25;;
72584;SDS011;60618;40.084;32.908;2022-10-15T05:14:47;8.53;;;4.43;;
72584;SDS011;60618;40.084;32.908;2022-10-15T05:17:14;9.15;;;4.95;;
72584;SDS011;60618;40.084;32.908;2022-10-15T05:19:41;9.40;;;4.82;;
72584;SDS011;60618;40.084;32.908;2022-10-15T05:22:08;9.05;;;4.80;;
72584;SDS011;60618;40.084;32.908;2022-10-15T05:24:35;9.45;;;4.75;;
72584;SDS011;60618;40.084;32.908;2022-10-15T05:27:02;7.53;;;4.20;;
72584;SDS011;60618;40.084;32.908;2022-10-15T05:29:29;8.70;;;4.70;;
72584;SDS011;60618;40.084;32.908;2022-10-15T05:31:56;8.43;;;4.70;;
72584;SDS011;60618;40.084;32.908;2022-10-15T05:34:23;9.63;;;4.88;;
72584;SDS011;60618;40.084;32.908;2022-10-15T05:36:51;9.32;;;4.60;;
72584;SDS011;60618;40.084;32.908;2022-10-15T05:39:18;8.67;;;4.80;;
72584;SDS011;60618;40.084;32.908;2022-10-15T05:41:45;8.13;;;4.53;;
72584;SDS011;60618;40.084;32.908;2022-10-15T05:44:12;9.68;;;5.03;;
72584;SDS011;60618;40.084;32.908;2022-10-15T05:46:39;9.85;;;4.50;;
72584;SDS011;60618;40.084;32.908;2022-10-15T05:49:06;8.70;;;4.70;;
72584;SDS011;60618;40.084;32.908;2022-10-15T05:51:33;7.77;;;4.10;;
72584;SDS011;60618;40.084;32.908;2022-10-15T05:54:00;9.80;;;4.55;;
72584;SDS011;60618;40.084;32.908;2022-10-15T05:56:26;8.38;;;4.88;;
72584;SDS011;60618;40.084;32.908;2022-10-15T05:58:53;7.90;;;4.10;;
72584;SDS011;60618;40.084;32.908;2022-10-15T06:01:20;9.02;;;4.80;;
72584;SDS011;60618;40.084;32.908;2022-10-15T06:03:47;10.40;;;4.50;;
72584;SDS011;60618;40.084;32.908;2022-10-15T06:06:18;8.52;;;4.45;;
72584;SDS011;60618;40.084;32.908;2022-10-15T06:08:47;7.95;;;4.55;;
72584;SDS011;60618;40.084;32.908;2022-10-15T06:11:15;10.00;;;4.63;;
72584;SDS011;60618;40.084;32.908;2022-10-15T06:13:43;9.30;;;4.65;;
72584;SDS011;60618;40.084;32.908;2022-10-15T06:16:14;9.20;;;4.50;;
72584;SDS011;60618;40.084;32.908;2022-10-15T06:18:48;7.93;;;4.68;;
72584;SDS011;60618;40.084;32.908;2022-10-15T06:21:14;9.30;;;5.20;;
72584;SDS011;60618;40.084;32.908;2022-10-15T06:23:41;8.88;;;4.70;;
72584;SDS011;60618;40.084;32.908;2022-10-15T06:26:08;10.48;;;4.90;;
72584;SDS011;60618;40.084;32.908;2022-10-15T06:28:36;8.43;;;4.63;;
72584;SDS011;60618;40.084;32.908;2022-10-15T06:31:04;9.85;;;4.85;;
72584;SDS011;60618;40.084;32.908;2022-10-15T06:33:32;8.20;;;4.63;;
72584;SDS011;60618;40.084;32.908;2022-10-15T06:36:01;9.40;;;4.93;;
72584;SDS011;60618;40.084;32.908;2022-10-15T06:38:29;9.00;;;4.55;;
72584;SDS011;60618;40.084;32.908;2022-10-15T06:40:57;10.13;;;4.77;;
72584;SDS011;60618;40.084;32.908;2022-10-15T06:43:23;9.80;;;4.60;;
72584;SDS011;60618;40.084;32.908;2022-10-15T06:45:52;11.05;;;5.30;;
72584;SDS011;60618;40.084;32.908;2022-10-15T06:48:19;10.00;;;4.63;;
72584;SDS011;60618;40.084;32.908;2022-10-15T06:50:46;8.27;;;4.25;;
72584;SDS011;60618;40.084;32.908;2022-10-15T06:53:13;13.43;;;4.70;;
72584;SDS011;60618;40.084;32.908;2022-10-15T06:55:39;9.80;;;5.38;;
72584;SDS011;60618;40.084;32.908;2022-10-15T06:58:09;9.82;;;4.80;;
72584;SDS011;60618;40.084;32.908;2022-10-15T07:00:42;8.98;;;4.43;;
72584;SDS011;60618;40.084;32.908;2022-10-15T07:03:09;14.35;;;6.03;;
72584;SDS011;60618;40.084;32.908;2022-10-15T07:05:36;12.53;;;5.27;;
72584;SDS011;60618;40.084;32.908;2022-10-15T07:08:03;11.60;;;5.55;;
72584;SDS011;60618;40.084;32.908;2022-10-15T07:10:30;14.77;;;6.03;;
72584;SDS011;60618;40.084;32.908;2022-10-15T07:13:00;8.52;;;4.90;;
72584;SDS011;60618;40.084;32.908;2022-10-15T07:15:28;11.93;;;5.25;;
72584;SDS011;60618;40.084;32.908;2022-10-15T07:17:56;9.27;;;5.30;;
72584;SDS011;60618;40.084;32.908;2022-10-15T07:20:26;10.57;;;5.25;;
72584;SDS011;60618;40.084;32.908;2022-10-15T07:22:55;8.60;;;4.50;;
72584;SDS011;60618;40.084;32.908;2022-10-15T07:25:23;10.57;;;5.65;;
72584;SDS011;60618;40.084;32.908;2022-10-15T07:27:51;11.23;;;6.22;;
72584;SDS011;60618;40.084;32.908;2022-10-15T07:30:18;8.93;;;4.97;;
72584;SDS011;60618;40.084;32.908;2022-10-15T07:32:45;9.68;;;5.22;;
72584;SDS011;60618;40.084;32.908;2022-10-15T07:35:12;9.50;;;4.78;;
72584;SDS011;60618;40.084;32.908;2022-10-15T07:37:39;8.88;;;4.88;;
72584;SDS011;60618;40.084;32.908;2022-10-15T07:40:06;8.35;;;4.50;;
72584;SDS011;60618;40.084;32.908;2022-10-15T07:42:33;8.40;;;4.27;;
72584;SDS011;60618;40.084;32.908;2022-10-15T07:45:00;10.35;;;4.38;;
72584;SDS011;60618;40.084;32.908;2022-10-15T07:47:27;8.80;;;4.38;;
72584;SDS011;60618;40.084;32.908;2022-10-15T07:49:54;8.98;;;4.63;;
72584;SDS011;60618;40.084;32.908;2022-10-15T07:52:21;11.40;;;5.85;;
72584;SDS011;60618;40.084;32.908;2022-10-15T07:54:48;11.87;;;5.20;;
72584;SDS011;60618;40.084;32.908;2022-10-15T07:57:16;26.65;;;5.88;;
72584;SDS011;60618;40.084;32.908;2022-10-15T07:59:43;16.33;;;5.07;;
72584;SDS011;60618;40.084;32.908;2022-10-15T08:02:17;8.20;;;4.50;;
72584;SDS011;60618;40.084;32.908;2022-10-15T08:04:44;8.38;;;4.53;;
72584;SDS011;60618;40.084;32.908;2022-10-15T08:07:11;9.17;;;4.80;;
72584;SDS011;60618;40.084;32.908;2022-10-15T08:09:38;9.52;;;5.03;;
72584;SDS011;60618;40.084;32.908;2022-10-15T08:12:05;15.52;;;6.00;;
72584;SDS011;60618;40.084;32.908;2022-10-15T08:14:33;10.57;;;5.03;;
72584;SDS011;60618;40.084;32.908;2022-10-15T08:17:03;9.50;;;5.00;;
72584;SDS011;60618;40.084;32.908;2022-10-15T08:19:31;11.50;;;4.43;;
72584;SDS011;60618;40.084;32.908;2022-10-15T08:21:59;12.43;;;4.63;;
72584;SDS011;60618;40.084;32.908;2022-10-15T08:24:25;10.93;;;5.38;;
72584;SDS011;60618;40.084;32.908;2022-10-15T08:26:52;8.77;;;4.40;;
72584;SDS011;60618;40.084;32.908;2022-10-15T08:29:19;10.05;;;5.35;;
72584;SDS011;60618;40.084;32.908;2022-10-15T08:31:46;16.63;;;6.23;;
72584;SDS011;60618;40.084;32.908;2022-10-15T08:34:14;10.20;;;5.50;;
72584;SDS011;60618;40.084;32.908;2022-10-15T08:36:41;10.40;;;5.03;;
72584;SDS011;60618;40.084;32.908;2022-10-15T08:39:07;9.80;;;4.85;;
72584;SDS011;60618;40.084;32.908;2022-10-15T08:41:36;8.75;;;4.80;;
72584;SDS011;60618;40.084;32.908;2022-10-15T08:44:05;9.13;;;4.97;;
72584;SDS011;60618;40.084;32.908;2022-10-15T08:46:41;8.57;;;4.50;;
72584;SDS011;60618;40.084;32.908;2022-10-15T08:49:20;8.30;;;4.20;;
72584;SDS011;60618;40.084;32.908;2022-10-15T08:52:13;14.93;;;4.75;;
72584;SDS011;60618;40.084;32.908;2022-10-15T08:54:46;8.30;;;4.45;;
72584;SDS011;60618;40.084;32.908;2022-10-15T08:57:19;8.50;;;4.50;;
72584;SDS011;60618;40.084;32.908;2022-10-15T08:59:59;8.32;;;4.53;;
72584;SDS011;60618;40.084;32.908;2022-10-15T09:03:03;8.70;;;4.30;;
72584;SDS011;60618;40.084;32.908;2022-10-15T09:05:33;8.07;;;4.03;;
72584;SDS011;60618;40.084;32.908;2022-10-15T09:13:55;8.68;;;4.50;;
72584;SDS011;60618;40.084;32.908;2022-10-15T09:16:24;8.93;;;4.55;;
72584;SDS011;60618;40.084;32.908;2022-10-15T09:19:05;9.20;;;4.40;;
72584;SDS011;60618;40.084;32.908;2022-10-15T09:21:39;8.45;;;4.60;;
72584;SDS011;60618;40.084;32.908;2022-10-15T09:24:08;9.07;;;4.80;;
72584;SDS011;60618;40.084;32.908;2022-10-15T09:35:03;9.95;;;4.88;;
72584;SDS011;60618;40.084;32.908;2022-10-15T09:43:38;11.57;;;5.55;;
72584;SDS011;60618;40.084;32.908;2022-10-15T09:46:07;10.93;;;4.65;;
72584;SDS011;60618;40.084;32.908;2022-10-15T09:48:46;9.40;;;4.78;;
72584;SDS011;60618;40.084;32.908;2022-10-15T09:51:26;7.53;;;4.23;;
72584;SDS011;60618;40.084;32.908;2022-10-15T09:56:51;11.70;;;4.55;;
72584;SDS011;60618;40.084;32.908;2022-10-15T09:59:21;8.30;;;4.43;;
72584;SDS011;60618;40.084;32.908;2022-10-15T10:01:57;8.95;;;4.18;;
72584;SDS011;60618;40.084;32.908;2022-10-15T10:04:43;9.00;;;5.07;;
72584;SDS011;60618;40.084;32.908;2022-10-15T10:07:24;9.27;;;4.20;;
72584;SDS011;60618;40.084;32.908;2022-10-15T10:09:56;9.93;;;4.38;;
72584;SDS011;60618;40.084;32.908;2022-10-15T10:12:28;8.52;;;4.47;;
72584;SDS011;60618;40.084;32.908;2022-10-15T10:17:56;8.53;;;4.30;;
72584;SDS011;60618;40.084;32.908;2022-10-15T10:20:27;7.50;;;4.28;;
72584;SDS011;60618;40.084;32.908;2022-10-15T10:22:58;7.10;;;3.88;;
72584;SDS011;60618;40.084;32.908;2022-10-15T10:25:34;7.55;;;3.80;;
72584;SDS011;60618;40.084;32.908;2022-10-15T10:35:54;11.40;;;5.38;;
72584;SDS011;60618;40.084;32.908;2022-10-15T10:38:26;8.15;;;3.80;;
72584;SDS011;60618;40.084;32.908;2022-10-15T10:40:55;8.07;;;3.85;;
72584;SDS011;60618;40.084;32.908;2022-10-15T10:43:26;6.70;;;3.50;;
72584;SDS011;60618;40.084;32.908;2022-10-15T10:45:58;5.70;;;3.20;;
72584;SDS011;60618;40.084;32.908;2022-10-15T10:51:10;7.47;;;3.58;;
72584;SDS011;60618;40.084;32.908;2022-10-15T10:53:46;7.30;;;3.70;;
72584;SDS011;60618;40.084;32.908;2022-10-15T10:56:19;6.67;;;3.77;;
72584;SDS011;60618;40.084;32.908;2022-10-15T11:01:43;6.40;;;3.72;;
72584;SDS011;60618;40.084;32.908;2022-10-15T11:04:22;6.65;;;3.47;;
72584;SDS011;60618;40.084;32.908;2022-10-15T11:06:55;7.93;;;3.80;;
72584;SDS011;60618;40.084;32.908;2022-10-15T11:26:10;7.47;;;3.30;;
72584;SDS011;60618;40.084;32.908;2022-10-15T11:29:13;10.63;;;4.00;;
72584;SDS011;60618;40.084;32.908;2022-10-15T11:38:18;6.87;;;3.50;;
72584;SDS011;60618;40.084;32.908;2022-10-15T11:52:28;6.43;;;3.30;;
72584;SDS011;60618;40.084;32.908;2022-10-15T11:55:12;9.73;;;3.25;;
72584;SDS011;60618;40.084;32.908;2022-10-15T11:57:39;6.25;;;3.40;;
72584;SDS011;60618;40.084;32.908;2022-10-15T12:02:42;6.38;;;3.10;;
72584;SDS011;60618;40.084;32.908;2022-10-15T12:05:16;7.20;;;3.53;;
72584;SDS011;60618;40.084;32.908;2022-10-15T12:07:47;7.45;;;3.28;;
72584;SDS011;60618;40.084;32.908;2022-10-15T12:15:38;5.97;;;3.42;;
72584;SDS011;60618;40.084;32.908;2022-10-15T12:21:34;7.30;;;3.22;;
72584;SDS011;60618;40.084;32.908;2022-10-15T12:32:36;5.67;;;3.00;;
72584;SDS011;60618;40.084;32.908;2022-10-15T12:35:16;7.10;;;3.20;;
72584;SDS011;60618;40.084;32.908;2022-10-15T12:37:45;6.05;;;3.10;;
72584;SDS011;60618;40.084;32.908;2022-10-15T12:43:02;7.00;;;3.05;;
72584;SDS011;60618;40.084;32.908;2022-10-15T12:45:39;6.00;;;3.00;;
72584;SDS011;60618;40.084;32.908;2022-10-15T12:50:41;5.78;;;3.58;;
72584;SDS011;60618;40.084;32.908;2022-10-15T12:58:52;7.63;;;3.57;;
72584;SDS011;60618;40.084;32.908;2022-10-15T13:06:35;5.90;;;3.33;;
72584;SDS011;60618;40.084;32.908;2022-10-15T13:16:58;7.18;;;3.55;;
72584;SDS011;60618;40.084;32.908;2022-10-15T13:19:30;6.93;;;3.63;;
72584;SDS011;60618;40.084;32.908;2022-10-15T13:22:03;9.35;;;3.70;;
72584;SDS011;60618;40.084;32.908;2022-10-15T13:24:41;6.83;;;3.47;;
72584;SDS011;60618;40.084;32.908;2022-10-15T13:27:14;7.80;;;3.60;;
72584;SDS011;60618;40.084;32.908;2022-10-15T13:29:53;7.13;;;3.50;;
72584;SDS011;60618;40.084;32.908;2022-10-15T13:32:32;6.95;;;3.40;;
72584;SDS011;60618;40.084;32.908;2022-10-15T13:35:03;7.10;;;3.40;;
72584;SDS011;60618;40.084;32.908;2022-10-15T13:37:38;7.60;;;3.00;;
72584;SDS011;60618;40.084;32.908;2022-10-15T13:40:06;6.65;;;2.97;;
72584;SDS011;60618;40.084;32.908;2022-10-15T13:42:56;7.53;;;3.42;;
72584;SDS011;60618;40.084;32.908;2022-10-15T13:45:27;5.72;;;2.97;;
72584;SDS011;60618;40.084;32.908;2022-10-15T13:47:55;7.28;;;3.25;;
72584;SDS011;60618;40.084;32.908;2022-10-15T13:55:25;7.05;;;3.10;;
72584;SDS011;60618;40.084;32.908;2022-10-15T13:58:00;7.07;;;3.50;;
72584;SDS011;60618;40.084;32.908;2022-10-15T14:00:32;7.47;;;3.42;;
72584;SDS011;60618;40.084;32.908;2022-10-15T14:05:56;8.02;;;3.28;;
72584;SDS011;60618;40.084;32.908;2022-10-15T14:08:34;6.63;;;3.20;;
72584;SDS011;60618;40.084;32.908;2022-10-15T14:11:01;6.47;;;3.20;;
72584;SDS011;60618;40.084;32.908;2022-10-15T14:13:28;6.78;;;3.60;;
72584;SDS011;60618;40.084;32.908;2022-10-15T14:16:10;7.90;;;4.37;;
72584;SDS011;60618;40.084;32.908;2022-10-15T14:18:46;6.88;;;3.38;;
72584;SDS011;60618;40.084;32.908;2022-10-15T14:21:19;6.38;;;3.10;;
72584;SDS011;60618;40.084;32.908;2022-10-15T14:23:49;8.40;;;3.72;;
72584;SDS011;60618;40.084;32.908;2022-10-15T14:26:19;7.88;;;3.45;;
72584;SDS011;60618;40.084;32.908;2022-10-15T14:28:49;7.03;;;3.70;;
72584;SDS011;60618;40.084;32.908;2022-10-15T14:37:01;7.13;;;3.40;;
72584;SDS011;60618;40.084;32.908;2022-10-15T14:39:30;7.60;;;3.35;;
72584;SDS011;60618;40.084;32.908;2022-10-15T14:42:05;6.93;;;3.60;;
72584;SDS011;60618;40.084;32.908;2022-10-15T14:44:48;21.80;;;4.00;;
72584;SDS011;60618;40.084;32.908;2022-10-15T14:47:29;7.22;;;3.17;;
72584;SDS011;60618;40.084;32.908;2022-10-15T14:49:57;6.43;;;3.33;;
72584;SDS011;60618;40.084;32.908;2022-10-15T14:52:27;6.50;;;3.22;;
72584;SDS011;60618;40.084;32.908;2022-10-15T14:55:14;6.93;;;3.23;;
72584;SDS011;60618;40.084;32.908;2022-10-15T14:58:05;6.57;;;3.40;;
72584;SDS011;60618;40.084;32.908;2022-10-15T15:00:38;6.57;;;3.38;;
72584;SDS011;60618;40.084;32.908;2022-10-15T15:03:16;8.02;;;3.38;;
72584;SDS011;60618;40.084;32.908;2022-10-15T15:05:49;6.57;;;3.40;;
72584;SDS011;60618;40.084;32.908;2022-10-15T15:08:21;6.63;;;3.40;;
72584;SDS011;60618;40.084;32.908;2022-10-15T15:10:54;7.47;;;3.70;;
72584;SDS011;60618;40.084;32.908;2022-10-15T15:13:23;7.13;;;3.53;;
72584;SDS011;60618;40.084;32.908;2022-10-15T15:15:52;6.57;;;3.40;;
72584;SDS011;60618;40.084;32.908;2022-10-15T15:18:19;7.00;;;3.53;;
72584;SDS011;60618;40.084;32.908;2022-10-15T15:20:47;8.80;;;4.10;;
72584;SDS011;60618;40.084;32.908;2022-10-15T15:23:18;10.15;;;3.97;;
72584;SDS011;60618;40.084;32.908;2022-10-15T15:25:47;8.05;;;3.85;;
72584;SDS011;60618;40.084;32.908;2022-10-15T15:28:17;9.73;;;3.60;;
72584;SDS011;60618;40.084;32.908;2022-10-15T15:30:46;8.23;;;3.80;;
72584;SDS011;60618;40.084;32.908;2022-10-15T15:33:20;7.50;;;3.80;;
72584;SDS011;60618;40.084;32.908;2022-10-15T15:35:48;6.82;;;3.70;;
72584;SDS011;60618;40.084;32.908;2022-10-15T15:38:23;8.60;;;3.85;;
72584;SDS011;60618;40.084;32.908;2022-10-15T15:40:50;9.02;;;4.18;;
72584;SDS011;60618;40.084;32.908;2022-10-15T15:43:17;8.07;;;4.18;;
72584;SDS011;60618;40.084;32.908;2022-10-15T15:45:45;7.10;;;3.43;;
72584;SDS011;60618;40.084;32.908;2022-10-15T15:48:12;8.68;;;3.88;;
72584;SDS011;60618;40.084;32.908;2022-10-15T15:50:39;8.25;;;4.03;;
72584;SDS011;60618;40.084;32.908;2022-10-15T15:53:07;7.80;;;3.72;;
72584;SDS011;60618;40.084;32.908;2022-10-15T15:55:35;9.75;;;4.18;;
72584;SDS011;60618;40.084;32.908;2022-10-15T15:58:02;10.00;;;4.67;;
72584;SDS011;60618;40.084;32.908;2022-10-15T16:00:29;9.45;;;4.47;;
72584;SDS011;60618;40.084;32.908;2022-10-15T16:02:56;8.77;;;4.45;;
72584;SDS011;60618;40.084;32.908;2022-10-15T16:05:23;10.45;;;4.40;;
72584;SDS011;60618;40.084;32.908;2022-10-15T16:07:50;8.20;;;4.10;;
72584;SDS011;60618;40.084;32.908;2022-10-15T16:10:20;7.97;;;4.40;;
72584;SDS011;60618;40.084;32.908;2022-10-15T16:12:54;8.55;;;4.00;;
72584;SDS011;60618;40.084;32.908;2022-10-15T16:15:29;8.07;;;3.83;;
72584;SDS011;60618;40.084;32.908;2022-10-15T16:17:56;8.13;;;4.32;;
72584;SDS011;60618;40.084;32.908;2022-10-15T16:20:23;7.95;;;4.15;;
72584;SDS011;60618;40.084;32.908;2022-10-15T16:22:50;9.47;;;4.23;;
72584;SDS011;60618;40.084;32.908;2022-10-15T16:25:17;10.43;;;4.10;;
72584;SDS011;60618;40.084;32.908;2022-10-15T16:27:45;10.07;;;4.38;;
72584;SDS011;60618;40.084;32.908;2022-10-15T16:30:13;10.07;;;4.63;;
72584;SDS011;60618;40.084;32.908;2022-10-15T16:32:41;10.48;;;5.00;;
72584;SDS011;60618;40.084;32.908;2022-10-15T16:35:11;8.80;;;4.80;;
72584;SDS011;60618;40.084;32.908;2022-10-15T16:37:38;8.05;;;4.43;;
72584;SDS011;60618;40.084;32.908;2022-10-15T16:40:05;10.05;;;4.38;;
72584;SDS011;60618;40.084;32.908;2022-10-15T16:42:32;9.60;;;5.00;;
72584;SDS011;60618;40.084;32.908;2022-10-15T16:44:59;9.07;;;4.70;;
72584;SDS011;60618;40.084;32.908;2022-10-15T16:47:26;13.23;;;5.07;;
72584;SDS011;60618;40.084;32.908;2022-10-15T16:49:53;8.07;;;4.20;;
72584;SDS011;60618;40.084;32.908;2022-10-15T16:52:20;12.95;;;4.10;;
72584;SDS011;60618;40.084;32.908;2022-10-15T16:54:47;8.02;;;4.30;;
72584;SDS011;60618;40.084;32.908;2022-10-15T16:57:14;9.98;;;4.30;;
72584;SDS011;60618;40.084;32.908;2022-10-15T16:59:41;7.77;;;4.30;;
72584;SDS011;60618;40.084;32.908;2022-10-15T17:02:08;9.10;;;4.35;;
72584;SDS011;60618;40.084;32.908;2022-10-15T17:04:35;9.02;;;4.00;;
72584;SDS011;60618;40.084;32.908;2022-10-15T17:07:02;9.75;;;4.50;;
72584;SDS011;60618;40.084;32.908;2022-10-15T17:09:29;7.32;;;3.85;;
72584;SDS011;60618;40.084;32.908;2022-10-15T17:11:56;8.97;;;4.30;;
72584;SDS011;60618;40.084;32.908;2022-10-15T17:14:23;8.13;;;4.20;;
72584;SDS011;60618;40.084;32.908;2022-10-15T17:16:50;9.10;;;4.45;;
72584;SDS011;60618;40.084;32.908;2022-10-15T17:19:18;10.73;;;4.45;;
72584;SDS011;60618;40.084;32.908;2022-10-15T17:21:47;7.95;;;3.80;;
72584;SDS011;60618;40.084;32.908;2022-10-15T17:24:15;7.77;;;3.97;;